Time;durP1;ratioP1;P1;durP2;ratioP2;P2;SDS_P1;SDS_P2;PMS_P1;PMS_P2;Temp;Humidity;BMP_temperature;BMP_pressure;BME280_temperature;BME280_humidity;BME280_pressure;Samples;Min_cycle;Max_cycle;Signal;HPM_P1;HPM_P2
2020/12/04 00:00:10;;;;;;;30.50;15.83;;;0.50;99.90;;;;;;4239571;28;20275;-43
2020/12/04 00:02:12;;;;;;;32.13;15.97;;;0.60;99.90;;;;;;4239881;28;20283;-44
2020/12/04 00:04:13;;;;;;;33.13;16.83;;;0.60;99.90;;;;;;4238517;28;20339;-46
2020/12/04 00:06:14;;;;;;;29.77;15.27;;;0.50;99.90;;;;;;4239517;28;20508;-42
2020/12/04 00:08:15;;;;;;;28.73;15.83;;;0.50;99.90;;;;;;4238658;28;20291;-43
2020/12/04 00:10:16;;;;;;;34.00;16.97;;;0.50;99.90;;;;;;4240800;28;20275;-41
2020/12/04 00:12:17;;;;;;;33.40;16.53;;;0.60;99.90;;;;;;4238488;28;20291;-40
2020/12/04 00:14:18;;;;;;;32.83;17.03;;;0.60;99.90;;;;;;4240144;28;20747;-49
2020/12/04 00:16:19;;;;;;;32.40;15.37;;;0.70;99.90;;;;;;4238962;28;20302;-44
2020/12/04 00:18:20;;;;;;;30.07;15.33;;;0.70;99.90;;;;;;4239893;28;20332;-47
2020/12/04 00:20:22;;;;;;;25.93;13.97;;;0.90;99.90;;;;;;4238607;28;20263;-49
2020/12/04 00:22:23;;;;;;;30.67;14.00;;;1.00;99.90;;;;;;4239798;28;20275;-41
2020/12/04 00:24:24;;;;;;;32.63;14.37;;;1.20;99.90;;;;;;4239875;28;20308;-40
2020/12/04 00:26:25;;;;;;;31.27;14.93;;;1.40;99.90;;;;;;4240126;28;21143;-42
2020/12/04 00:28:26;;;;;;;28.47;14.27;;;1.40;99.90;;;;;;4239582;28;20264;-40
2020/12/04 00:30:27;;;;;;;28.37;14.57;;;1.40;99.90;;;;;;4238460;28;20276;-42
2020/12/04 00:32:28;;;;;;;31.00;13.73;;;1.40;99.90;;;;;;4240277;28;20280;-40
2020/12/04 00:34:29;;;;;;;28.23;14.60;;;1.40;99.90;;;;;;4238273;28;20321;-39
2020/12/04 00:36:30;;;;;;;33.27;15.30;;;1.40;99.90;;;;;;4240425;28;20260;-39
2020/12/04 00:38:31;;;;;;;25.07;14.07;;;1.50;99.90;;;;;;4239206;28;21065;-42
2020/12/04 00:40:33;;;;;;;28.60;13.77;;;1.50;99.90;;;;;;4239872;28;20276;-41
2020/12/04 00:42:34;;;;;;;28.50;14.33;;;1.50;99.90;;;;;;4238951;28;20716;-40
2020/12/04 00:44:35;;;;;;;25.03;13.13;;;1.50;99.90;;;;;;4240210;28;20263;-43
2020/12/04 00:46:36;;;;;;;26.77;13.67;;;1.60;99.90;;;;;;4239210;28;20607;-41
2020/12/04 00:48:37;;;;;;;30.03;14.27;;;1.60;99.90;;;;;;4240733;28;20324;-40
2020/12/04 00:50:38;;;;;;;27.30;14.07;;;1.60;99.90;;;;;;4238373;28;20268;-41
2020/12/04 00:52:39;;;;;;;26.97;13.83;;;1.60;99.90;;;;;;4238933;28;20267;-40
2020/12/04 00:54:40;;;;;;;28.73;13.90;;;1.60;99.90;;;;;;4239703;28;20276;-40
2020/12/04 00:56:41;;;;;;;30.80;15.10;;;1.60;99.90;;;;;;4240997;27;20271;-42
2020/12/04 00:58:45;;;;;;;26.70;13.60;;;1.50;99.90;;;;;;4242383;27;20344;-40
2020/12/04 01:00:46;;;;;;;26.67;14.27;;;1.40;99.90;;;;;;4241868;27;20316;-41
2020/12/04 01:02:47;;;;;;;29.43;13.93;;;1.30;99.90;;;;;;4242759;27;20272;-39
2020/12/04 01:04:48;;;;;;;24.40;12.97;;;1.30;99.90;;;;;;4241729;27;20348;-42
2020/12/04 01:06:49;;;;;;;26.73;13.10;;;1.20;99.90;;;;;;4242779;27;20827;-40
2020/12/04 01:08:50;;;;;;;27.93;14.10;;;1.20;99.90;;;;;;4242147;27;20323;-42
2020/12/04 01:10:52;;;;;;;31.43;14.80;;;1.10;99.90;;;;;;4242675;27;20268;-43
2020/12/04 01:12:53;;;;;;;29.83;13.73;;;1.10;99.90;;;;;;4241998;27;20259;-40
2020/12/04 01:14:54;;;;;;;25.33;13.10;;;1.10;99.90;;;;;;4243162;27;20320;-41
2020/12/04 01:16:55;;;;;;;23.80;12.23;;;1.20;99.90;;;;;;4241549;27;20325;-41
2020/12/04 01:18:56;;;;;;;24.63;13.00;;;1.20;99.90;;;;;;4243140;27;20263;-41
2020/12/04 01:20:57;;;;;;;24.57;13.50;;;1.20;99.90;;;;;;4241138;27;20283;-41
2020/12/04 01:22:58;;;;;;;27.50;13.60;;;1.20;99.90;;;;;;4241915;27;20328;-40
2020/12/04 01:24:59;;;;;;;27.50;13.30;;;1.10;99.90;;;;;;4242603;27;20316;-44
2020/12/04 01:27:00;;;;;;;26.40;13.33;;;1.10;99.90;;;;;;4242306;27;20271;-44
2020/12/04 01:29:01;;;;;;;29.20;13.63;;;1.00;99.90;;;;;;4242118;27;20267;-45
2020/12/04 01:31:03;;;;;;;25.33;13.23;;;1.00;99.90;;;;;;4241344;27;20818;-45
2020/12/04 01:33:04;;;;;;;24.17;12.83;;;1.00;99.90;;;;;;4242855;27;20247;-41
2020/12/04 01:35:06;;;;;;;26.00;12.77;;;1.00;99.90;;;;;;4240666;27;20283;-44
2020/12/04 01:37:07;;;;;;;23.00;12.60;;;1.00;99.90;;;;;;4243090;27;20320;-43
2020/12/04 01:39:08;;;;;;;26.43;13.03;;;1.00;99.90;;;;;;4241504;27;20754;-39
2020/12/04 01:41:09;;;;;;;25.00;12.07;;;1.00;99.90;;;;;;4241938;27;20317;-39
2020/12/04 01:43:10;;;;;;;24.33;12.83;;;1.10;99.90;;;;;;4241137;27;20411;-44
2020/12/04 01:45:11;;;;;;;25.10;13.90;;;1.10;99.90;;;;;;4242019;27;20360;-44
2020/12/04 01:47:13;;;;;;;28.33;14.03;;;1.00;99.90;;;;;;4240372;27;20271;-41
2020/12/04 01:49:15;;;;;;;26.63;12.47;;;1.10;99.90;;;;;;4242248;27;20263;-40
2020/12/04 01:51:17;;;;;;;28.03;13.93;;;1.00;99.90;;;;;;4241317;27;20308;-42
2020/12/04 01:53:19;;;;;;;28.83;13.53;;;1.00;99.90;;;;;;4242086;27;20328;-39
2020/12/04 01:55:20;;;;;;;27.13;14.27;;;1.00;99.90;;;;;;4241329;27;20291;-41
2020/12/04 01:57:26;;;;;;;25.30;12.20;;;1.00;99.90;;;;;;4240918;27;20325;-38
2020/12/04 01:59:27;;;;;;;23.77;13.33;;;1.00;99.90;;;;;;4240927;27;20719;-41
2020/12/04 02:01:32;;;;;;;26.77;13.37;;;1.00;99.90;;;;;;4240820;27;20279;-37
2020/12/04 02:03:34;;;;;;;24.57;12.93;;;1.00;99.90;;;;;;4241420;27;20271;-40
2020/12/04 02:05:47;;;;;;;25.10;13.13;;;1.10;99.90;;;;;;4240111;27;20267;-42
2020/12/04 02:08:07;;;;;;;25.50;12.97;;;1.30;99.90;;;;;;4241397;27;20272;-40
2020/12/04 02:10:28;;;;;;;28.80;12.97;;;1.40;99.90;;;;;;4240797;27;20314;-40
2020/12/04 02:12:29;;;;;;;;;;;1.40;99.90;;;;;;4241867;27;20934;-44
2020/12/04 02:14:33;;;;;;;29.60;12.40;;;1.50;99.90;;;;;;4241076;27;19956;-40
2020/12/04 02:16:38;;;;;;;24.23;12.10;;;1.50;99.90;;;;;;4240835;27;20327;-43
2020/12/04 02:18:40;;;;;;;27.63;13.00;;;1.50;99.90;;;;;;4223235;27;20293;-40
2020/12/04 02:20:41;;;;;;;27.20;13.93;;;1.50;99.90;;;;;;4241354;27;20347;-42
2020/12/04 02:22:42;;;;;;;25.03;13.07;;;1.50;99.90;;;;;;4240381;27;20275;-42
2020/12/04 02:24:43;;;;;;;27.47;14.13;;;1.50;99.90;;;;;;4241187;27;20672;-39
2020/12/04 02:26:45;;;;;;;25.60;12.47;;;1.50;99.90;;;;;;4240198;27;20340;-39
2020/12/04 02:28:47;;;;;;;25.00;12.90;;;1.50;99.90;;;;;;4241189;27;20272;-41
2020/12/04 02:30:48;;;;;;;21.63;11.67;;;1.60;99.90;;;;;;4240635;27;20263;-38
2020/12/04 02:32:49;;;;;;;21.07;11.93;;;1.70;99.90;;;;;;4241423;27;20336;-41
2020/12/04 02:34:50;;;;;;;25.33;12.27;;;1.70;99.90;;;;;;4240469;27;20660;-40
2020/12/04 02:36:55;;;;;;;27.37;13.10;;;1.80;99.90;;;;;;4241461;27;20275;-40
2020/12/04 02:38:56;;;;;;;20.30;11.77;;;1.70;99.90;;;;;;4240489;27;20267;-39
2020/12/04 02:40:58;;;;;;;23.80;12.57;;;1.70;99.90;;;;;;4241731;27;20739;-41
2020/12/04 02:42:59;;;;;;;23.73;12.40;;;1.70;99.90;;;;;;4240408;27;20279;-39
2020/12/04 02:45:00;;;;;;;24.60;13.00;;;1.70;99.90;;;;;;4240973;27;20274;-44
2020/12/04 02:47:01;;;;;;;26.87;12.80;;;1.60;99.90;;;;;;4240611;27;20833;-41
2020/12/04 02:49:02;;;;;;;27.50;13.13;;;1.50;99.90;;;;;;4240174;27;20279;-40
2020/12/04 02:51:06;;;;;;;25.03;13.67;;;1.50;99.90;;;;;;4241801;27;20267;-41
2020/12/04 02:53:07;;;;;;;23.90;12.97;;;1.40;99.90;;;;;;4239627;27;20329;-41
2020/12/04 02:55:08;;;;;;;28.27;13.43;;;1.40;99.90;;;;;;4240925;27;20914;-42
2020/12/04 02:57:09;;;;;;;22.33;12.07;;;1.40;99.90;;;;;;4239752;27;20275;-38
2020/12/04 02:59:11;;;;;;;26.53;14.07;;;1.30;99.90;;;;;;4241382;27;20280;-39
2020/12/04 03:01:12;;;;;;;28.93;12.33;;;1.30;99.90;;;;;;4240010;27;21094;-41
2020/12/04 03:03:13;;;;;;;28.37;12.50;;;1.20;99.90;;;;;;4240790;27;20313;-41
2020/12/04 03:05:14;;;;;;;22.80;12.97;;;1.30;99.90;;;;;;4240010;27;20583;-41
2020/12/04 03:07:15;;;;;;;23.90;12.20;;;1.30;99.90;;;;;;4240400;27;20268;-40
2020/12/04 03:09:16;;;;;;;25.23;12.73;;;1.40;99.90;;;;;;4239867;27;20751;-38
2020/12/04 03:11:19;;;;;;;25.67;13.70;;;1.40;99.90;;;;;;4241589;27;20300;-39
2020/12/04 03:13:21;;;;;;;26.60;14.20;;;1.40;99.90;;;;;;4239345;27;20286;-40
2020/12/04 03:15:22;;;;;;;28.37;13.33;;;1.30;99.90;;;;;;4240062;27;20356;-43
2020/12/04 03:17:23;;;;;;;26.37;13.90;;;1.20;99.90;;;;;;4239610;27;20333;-42
2020/12/04 03:19:24;;;;;;;32.60;14.10;;;1.10;99.90;;;;;;4239989;27;20731;-46
2020/12/04 03:21:25;;;;;;;32.80;15.77;;;1.10;99.90;;;;;;4240591;27;20263;-42
2020/12/04 03:23:26;;;;;;;26.73;13.37;;;1.00;99.90;;;;;;4238938;27;20320;-40
2020/12/04 03:25:27;;;;;;;24.23;13.10;;;1.00;99.90;;;;;;4239935;27;20276;-39
2020/12/04 03:27:28;;;;;;;26.93;13.23;;;1.00;99.90;;;;;;4239589;27;20657;-38
2020/12/04 03:29:29;;;;;;;30.13;14.40;;;0.90;99.90;;;;;;4240954;27;20259;-40
2020/12/04 03:31:30;;;;;;;30.90;14.47;;;0.90;99.90;;;;;;4238715;27;20259;-42
2020/12/04 03:33:32;;;;;;;36.83;15.03;;;0.80;99.90;;;;;;4240664;27;21110;-38
2020/12/04 03:35:33;;;;;;;29.17;14.47;;;0.70;99.90;;;;;;4238549;27;20255;-41
2020/12/04 03:37:34;;;;;;;30.80;14.57;;;0.60;99.90;;;;;;4241150;27;20314;-43
2020/12/04 03:39:35;;;;;;;28.33;13.97;;;0.70;99.90;;;;;;4238684;27;20284;-40
2020/12/04 03:41:36;;;;;;;31.40;16.00;;;0.70;99.90;;;;;;4240283;27;20259;-46
2020/12/04 03:43:40;;;;;;;26.67;13.20;;;0.70;99.90;;;;;;4220620;28;21079;-42
2020/12/04 03:45:41;;;;;;;28.67;14.43;;;0.60;99.90;;;;;;4239501;27;20311;-40
2020/12/04 03:47:42;;;;;;;28.33;14.27;;;0.60;99.90;;;;;;4239734;27;20259;-41
2020/12/04 03:49:44;;;;;;;29.40;13.77;;;0.60;99.90;;;;;;4240013;27;20295;-42
2020/12/04 03:51:45;;;;;;;29.70;15.30;;;0.50;99.90;;;;;;4240426;28;21209;-39
2020/12/04 03:53:47;;;;;;;29.47;14.33;;;0.50;99.90;;;;;;4239483;28;20259;-40
2020/12/04 03:55:48;;;;;;;34.97;13.80;;;0.50;99.90;;;;;;4240202;28;20338;-40
2020/12/04 03:57:49;;;;;;;26.03;12.53;;;0.50;99.90;;;;;;4238463;28;20331;-41
2020/12/04 03:59:50;;;;;;;23.53;11.93;;;0.80;99.90;;;;;;4239822;28;20280;-40
2020/12/04 04:01:51;;;;;;;25.67;12.33;;;1.10;99.90;;;;;;4239650;28;20759;-41
2020/12/04 04:03:53;;;;;;;24.37;11.17;;;1.30;99.90;;;;;;4239978;28;20541;-41
2020/12/04 04:05:54;;;;;;;25.80;11.70;;;1.40;99.90;;;;;;4238192;28;20287;-41
2020/12/04 04:07:55;;;;;;;22.00;10.70;;;1.50;99.90;;;;;;4239741;28;20332;-40
2020/12/04 04:09:56;;;;;;;20.70;11.23;;;1.60;99.90;;;;;;4238724;28;20320;-43
2020/12/04 04:11:57;;;;;;;19.30;9.87;;;1.90;99.90;;;;;;4239487;28;20353;-41
2020/12/04 04:13:58;;;;;;;21.27;10.70;;;2.10;99.90;;;;;;4239362;28;20297;-40
2020/12/04 04:15:59;;;;;;;23.47;10.53;;;2.20;99.90;;;;;;4239008;28;20763;-44
2020/12/04 04:18:00;;;;;;;21.10;11.13;;;2.20;99.90;;;;;;4239581;28;20313;-39
2020/12/04 04:20:03;;;;;;;23.23;10.83;;;2.20;99.90;;;;;;4240109;28;20320;-42
2020/12/04 04:22:04;;;;;;;20.27;10.97;;;2.20;99.90;;;;;;4239283;28;20256;-39
2020/12/04 04:24:06;;;;;;;20.97;11.13;;;2.30;99.90;;;;;;4239574;28;20325;-43
2020/12/04 04:26:08;;;;;;;19.97;10.20;;;2.30;99.90;;;;;;4240289;28;20700;-40
2020/12/04 04:28:12;;;;;;;17.70;9.83;;;2.40;99.90;;;;;;4239499;28;20259;-44
2020/12/04 04:30:14;;;;;;;19.87;10.13;;;2.40;99.90;;;;;;4239850;27;20283;-42
2020/12/04 04:32:17;;;;;;;18.77;9.67;;;2.50;99.90;;;;;;4242503;27;20287;-37
2020/12/04 04:34:18;;;;;;;19.77;8.63;;;2.50;99.90;;;;;;4243076;27;20283;-42
2020/12/04 04:36:19;;;;;;;18.57;8.37;;;2.70;99.90;;;;;;4242366;27;20255;-41
2020/12/04 04:38:20;;;;;;;17.17;8.97;;;2.80;99.90;;;;;;4243784;27;20690;-41
2020/12/04 04:40:23;;;;;;;18.40;7.67;;;2.90;99.90;;;;;;4242088;27;20664;-43
2020/12/04 04:42:25;;;;;;;15.57;7.17;;;3.10;99.90;;;;;;4243965;27;20678;-42
2020/12/04 04:44:26;;;;;;;15.53;7.83;;;3.20;99.90;;;;;;4241885;27;20259;-42
2020/12/04 04:46:57;;;;;;;14.83;7.67;;;3.30;99.90;;;;;;4242853;27;20259;-40
2020/12/04 04:49:06;;;;;;;16.37;8.60;;;3.40;99.90;;;;;;4242130;27;20320;-39
2020/12/04 04:51:07;;;;;;;22.57;9.47;;;3.30;99.90;;;;;;4243352;27;20271;-41
2020/12/04 04:53:09;;;;;;;19.60;9.43;;;3.20;99.90;;;;;;4242395;27;20294;-43
2020/12/04 04:55:10;;;;;;;19.47;10.37;;;3.00;99.90;;;;;;4243005;27;20279;-40
2020/12/04 04:57:12;;;;;;;18.23;9.63;;;2.80;99.90;;;;;;4241920;27;20923;-44
2020/12/04 04:59:13;;;;;;;16.70;9.27;;;2.70;99.90;;;;;;4241641;27;20300;-40
2020/12/04 05:01:15;;;;;;;19.30;9.93;;;2.50;99.90;;;;;;4242118;27;20316;-44
2020/12/04 05:03:16;;;;;;;22.80;11.23;;;2.40;99.90;;;;;;4241983;27;20271;-41
2020/12/04 05:05:18;;;;;;;27.93;12.17;;;2.30;99.90;;;;;;4242297;27;20256;-39
2020/12/04 05:07:33;;;;;;;22.07;10.47;;;2.10;99.90;;;;;;4222818;28;20767;-45
2020/12/04 05:09:34;;;;;;;23.23;11.23;;;1.90;99.90;;;;;;4242413;27;20342;-40
2020/12/04 05:11:36;;;;;;;25.43;11.67;;;1.90;99.90;;;;;;4241192;27;20324;-43
2020/12/04 05:13:37;;;;;;;15.47;7.83;;;1.80;99.90;;;;;;4241956;27;20371;-42
2020/12/04 05:15:39;;;;;;;12.10;7.23;;;2.00;99.90;;;;;;4241169;27;20275;-44
2020/12/04 05:18:01;;;;;;;15.70;7.23;;;2.40;99.90;;;;;;4242665;27;20340;-40
2020/12/04 05:20:14;;;;;;;13.23;6.53;;;2.70;99.90;;;;;;4241579;27;20263;-38
2020/12/04 05:22:17;;;;;;;13.20;6.77;;;2.90;99.90;;;;;;4242213;27;20271;-40
2020/12/04 05:24:25;;;;;;;15.53;7.20;;;3.10;99.90;;;;;;4241460;27;20263;-43
2020/12/04 05:26:35;;;;;;;12.47;6.83;;;3.20;99.90;;;;;;4242633;27;20324;-45
2020/12/04 05:28:36;;;;;;;14.23;6.93;;;3.20;99.90;;;;;;4241090;27;20279;-40
2020/12/04 05:30:38;;;;;;;16.03;6.93;;;3.20;99.90;;;;;;4242290;27;20673;-41
2020/12/04 05:32:39;;;;;;;13.40;6.87;;;3.30;99.90;;;;;;4241367;27;21107;-43
2020/12/04 05:34:40;;;;;;;14.67;7.47;;;3.40;99.90;;;;;;4242034;27;20319;-43
2020/12/04 05:36:42;;;;;;;12.93;6.87;;;3.40;99.90;;;;;;4240188;27;20847;-42
2020/12/04 05:38:53;;;;;;;14.00;6.67;;;3.40;99.90;;;;;;4241617;27;20774;-41
2020/12/04 05:41:07;;;;;;;;;;;3.40;99.90;;;;;;4240594;27;20320;-44
2020/12/04 05:43:08;;;;;;;12.87;7.03;;;3.30;99.90;;;;;;4242176;27;20642;-42
2020/12/04 05:45:09;;;;;;;17.33;7.13;;;3.20;99.90;;;;;;4240843;27;20999;-39
2020/12/04 05:47:11;;;;;;;17.07;7.03;;;3.10;99.90;;;;;;4242040;27;20391;-40
2020/12/04 05:49:12;;;;;;;16.37;7.73;;;3.10;99.90;;;;;;4241138;27;20268;-40
2020/12/04 05:51:16;;;;;;;13.03;6.07;;;3.10;99.90;;;;;;4241602;27;20833;-45
2020/12/04 05:53:17;;;;;;;14.87;7.37;;;3.10;99.90;;;;;;4240736;27;20294;-45
2020/12/04 05:55:20;;;;;;;13.40;6.10;;;3.20;99.90;;;;;;4241488;27;20327;-40
2020/12/04 05:57:22;;;;;;;17.57;7.00;;;3.20;99.90;;;;;;4241233;27;20267;-38
2020/12/04 05:59:24;;;;;;;14.93;7.40;;;3.20;99.90;;;;;;4240803;27;20324;-41
2020/12/04 06:01:25;;;;;;;14.90;7.67;;;3.10;99.90;;;;;;4240842;27;20324;-39
2020/12/04 06:03:26;;;;;;;16.30;8.27;;;3.10;99.90;;;;;;4241092;27;20260;-43
2020/12/04 06:05:28;;;;;;;12.77;6.80;;;3.20;99.90;;;;;;4241936;27;20754;-46
2020/12/04 06:07:29;;;;;;;16.07;6.77;;;3.30;99.90;;;;;;4241136;27;20309;-39
2020/12/04 06:09:30;;;;;;;14.80;7.60;;;3.40;99.90;;;;;;4242234;27;20263;-44
2020/12/04 06:11:44;;;;;;;16.23;7.80;;;3.50;99.90;;;;;;4240163;27;20301;-42
2020/12/04 06:13:45;;;;;;;14.00;7.67;;;3.60;99.90;;;;;;4240910;27;20287;-41
2020/12/04 06:15:46;;;;;;;14.60;7.87;;;3.60;99.90;;;;;;4239935;27;20348;-40
2020/12/04 06:17:49;;;;;;;18.33;10.10;;;3.60;99.90;;;;;;4241155;27;20325;-41
2020/12/04 06:19:50;;;;;;;17.80;8.73;;;3.60;99.90;;;;;;4240929;27;20268;-43
2020/12/04 06:21:51;;;;;;;17.80;8.93;;;3.60;99.90;;;;;;4241056;27;20306;-41
2020/12/04 06:24:10;;;;;;;17.67;9.53;;;3.60;99.90;;;;;;4239870;27;20319;-41
2020/12/04 06:26:11;;;;;;;15.40;8.13;;;3.80;99.90;;;;;;4240814;27;20275;-44
2020/12/04 06:28:16;;;;;;;17.17;9.30;;;3.70;99.90;;;;;;4240654;27;20336;-47
2020/12/04 06:30:18;;;;;;;19.57;9.07;;;3.70;99.90;;;;;;4241319;27;20344;-52
2020/12/04 06:32:49;;;;;;;14.50;8.27;;;3.60;99.90;;;;;;4239464;27;20319;-42
2020/12/04 06:34:50;;;;;;;;;;;3.30;99.90;;;;;;4224248;27;20283;-44
2020/12/04 06:36:51;;;;;;;16.43;9.50;;;3.20;99.90;;;;;;4239704;27;19911;-46
2020/12/04 06:38:52;;;;;;;18.97;9.57;;;3.20;99.90;;;;;;4241303;27;20095;-47
2020/12/04 06:41:23;;;;;;;17.33;10.20;;;3.10;99.90;;;;;;4239450;27;20279;-41
2020/12/04 06:43:35;;;;;;;18.20;9.90;;;3.10;99.90;;;;;;4240996;27;20299;-45
2020/12/04 06:45:46;;;;;;;16.77;7.93;;;3.10;99.90;;;;;;4238915;27;20162;-46
2020/12/04 06:48:10;;;;;;;19.90;9.47;;;3.30;99.90;;;;;;4240286;27;20271;-44
2020/12/04 06:50:11;;;;;;;18.27;10.40;;;3.40;99.90;;;;;;4239855;27;21113;-40
2020/12/04 06:52:12;;;;;;;16.80;8.40;;;3.40;99.90;;;;;;4241215;27;20372;-43
2020/12/04 06:54:15;;;;;;;18.30;8.77;;;3.30;99.90;;;;;;4239056;27;20851;-40
2020/12/04 06:56:16;;;;;;;15.30;7.83;;;3.30;99.90;;;;;;4241579;27;20276;-45
2020/12/04 06:58:17;;;;;;;16.50;8.77;;;3.30;99.90;;;;;;4239303;27;21110;-42
2020/12/04 07:00:18;;;;;;;16.93;8.87;;;3.30;99.90;;;;;;4240594;27;20309;-44
2020/12/04 07:02:21;;;;;;;14.97;8.80;;;3.30;99.90;;;;;;4240213;27;20754;-49
2020/12/04 07:04:23;;;;;;;17.37;9.03;;;3.40;99.90;;;;;;4240097;27;20271;-44
2020/12/04 07:06:25;;;;;;;17.13;9.87;;;3.40;99.90;;;;;;4239579;27;20275;-52
2020/12/04 07:08:26;;;;;;;16.27;8.53;;;3.30;99.90;;;;;;4238748;27;20645;-48
2020/12/04 07:10:30;;;;;;;18.07;9.10;;;3.30;99.90;;;;;;4241041;27;20263;-44
2020/12/04 07:12:33;;;;;;;14.77;8.40;;;3.30;99.90;;;;;;4238409;27;20305;-46
2020/12/04 07:14:34;;;;;;;15.40;8.53;;;3.40;99.90;;;;;;4239358;27;20274;-43
2020/12/04 07:16:40;;;;;;;17.07;8.87;;;3.40;99.90;;;;;;4238483;27;20279;-41
2020/12/04 07:18:41;;;;;;;18.83;9.17;;;3.50;99.90;;;;;;4239552;27;20259;-48
2020/12/04 07:20:42;;;;;;;14.80;7.87;;;3.70;99.90;;;;;;4238934;27;20256;-46
2020/12/04 07:22:43;;;;;;;17.93;8.87;;;3.70;99.90;;;;;;4240484;27;20295;-46
2020/12/04 07:24:46;;;;;;;16.73;8.93;;;3.80;99.90;;;;;;4238679;27;20275;-43
2020/12/04 07:26:56;;;;;;;17.80;10.00;;;3.80;99.90;;;;;;4239041;27;20340;-46
2020/12/04 07:28:58;;;;;;;17.95;8.90;;;3.90;99.90;;;;;;4237753;27;20263;-43
2020/12/04 07:31:00;;;;;;;17.00;9.40;;;3.80;99.90;;;;;;4239336;27;20122;-44
2020/12/04 07:33:01;;;;;;;16.33;9.43;;;3.80;99.90;;;;;;4238907;27;20251;-49
2020/12/04 07:35:02;;;;;;;16.33;8.73;;;3.80;99.90;;;;;;4239420;27;20275;-47
2020/12/04 07:37:04;;;;;;;18.93;7.90;;;3.90;99.90;;;;;;4238489;27;20275;-46
2020/12/04 07:39:05;;;;;;;17.40;8.07;;;4.10;99.90;;;;;;4237791;27;20275;-47
2020/12/04 07:41:32;;;;;;;17.83;8.57;;;4.50;99.90;;;;;;4239029;27;20251;-44
2020/12/04 07:43:33;;;;;;;11.37;5.80;;;5.00;99.90;;;;;;4238348;27;20380;-41
2020/12/04 07:45:34;;;;;;;18.13;8.37;;;5.50;99.90;;;;;;4238800;27;20271;-37
2020/12/04 07:47:41;;;;;;;9.83;5.03;;;5.60;99.90;;;;;;4239412;28;20672;-40
2020/12/04 07:49:45;;;;;;;11.97;6.30;;;5.60;99.90;;;;;;4238723;27;21071;-43
2020/12/04 07:51:46;;;;;;;10.73;6.00;;;5.80;99.90;;;;;;4238576;27;20283;-44
2020/12/04 07:53:47;;;;;;;8.97;4.80;;;6.00;99.90;;;;;;4238871;28;20046;-43
2020/12/04 07:55:52;;;;;;;12.60;5.93;;;6.20;99.90;;;;;;4237921;28;20263;-41
2020/12/04 07:58:02;;;;;;;8.63;5.77;;;6.40;99.90;;;;;;4239476;28;20104;-45
2020/12/04 08:00:07;;;;;;;11.40;5.63;;;6.60;99.90;;;;;;4238517;28;20046;-43
2020/12/04 08:02:08;;;;;;;10.70;5.73;;;6.60;99.90;;;;;;4240078;28;20436;-44
2020/12/04 08:04:10;;;;;;;8.60;5.03;;;6.70;99.90;;;;;;4238384;28;20512;-48
2020/12/04 08:06:11;;;;;;;13.83;7.43;;;6.60;99.90;;;;;;4241893;27;20104;-44
2020/12/04 08:08:19;;;;;;;9.37;5.43;;;6.60;99.90;;;;;;4240350;27;20046;-42
2020/12/04 08:10:21;;;;;;;10.07;5.40;;;6.60;99.90;;;;;;4241126;27;20095;-43
2020/12/04 08:12:32;;;;;;;17.53;7.47;;;6.60;99.90;;;;;;4241226;27;20035;-44
2020/12/04 08:14:35;;;;;;;11.17;6.30;;;6.60;99.90;;;;;;4241598;27;20039;-49
2020/12/04 08:16:37;;;;;;;13.53;6.20;;;6.40;99.90;;;;;;4241058;27;20027;-42
2020/12/04 08:18:40;;;;;;;13.70;6.83;;;6.50;99.90;;;;;;4242912;27;20030;-49
2020/12/04 08:20:41;;;;;;;11.83;5.53;;;6.50;99.90;;;;;;4230925;27;20051;-44
2020/12/04 08:22:48;;;;;;;19.40;6.70;;;6.60;99.90;;;;;;4225319;28;20089;-49
2020/12/04 08:25:06;;;;;;;17.73;8.97;;;6.70;99.90;;;;;;4231550;27;20108;-46
2020/12/04 08:27:12;;;;;;;14.50;8.70;;;6.60;99.90;;;;;;4242357;27;20047;-48
2020/12/04 08:29:13;;;;;;;11.80;6.73;;;6.20;99.90;;;;;;4241516;27;20031;-42
2020/12/04 08:31:26;;;;;;;16.30;8.40;;;6.10;99.90;;;;;;4241686;27;20185;-43
2020/12/04 08:33:27;;;;;;;15.00;7.67;;;6.10;99.90;;;;;;4241353;27;20056;-41
2020/12/04 08:35:34;;;;;;;22.77;9.27;;;6.00;99.90;;;;;;4242418;27;20035;-41
2020/12/04 08:37:36;;;;;;;13.80;7.27;;;6.00;99.90;;;;;;4241495;27;20035;-42
2020/12/04 08:39:40;;;;;;;16.70;8.37;;;5.70;99.90;;;;;;4242031;27;20039;-43
2020/12/04 08:41:41;;;;;;;15.10;8.53;;;5.50;99.90;;;;;;4230628;27;20037;-45
2020/12/04 08:43:42;;;;;;;18.23;7.97;;;5.40;99.90;;;;;;4241424;27;20055;-43
2020/12/04 08:45:46;;;;;;;15.90;8.13;;;5.40;99.90;;;;;;4242020;27;20340;-44
2020/12/04 08:47:47;;;;;;;21.33;7.40;;;5.50;99.90;;;;;;4240852;27;20067;-51
2020/12/04 08:49:49;;;;;;;13.53;7.63;;;5.70;99.90;;;;;;4242624;27;20472;-53
2020/12/04 08:51:51;;;;;;;15.90;7.30;;;5.60;99.90;;;;;;4241869;27;20332;-41
2020/12/04 08:53:54;;;;;;;12.73;7.57;;;5.60;99.90;;;;;;4242437;27;20810;-46
2020/12/04 08:55:57;;;;;;;22.13;9.47;;;5.60;99.90;;;;;;4241253;27;20272;-46
2020/12/04 08:57:58;;;;;;;14.50;7.00;;;5.60;99.90;;;;;;4223591;28;20093;-43
2020/12/04 08:59:59;;;;;;;27.20;8.77;;;5.70;99.90;;;;;;4240589;27;20035;-47
2020/12/04 09:02:02;;;;;;;22.20;8.17;;;5.80;99.90;;;;;;4242916;27;20023;-44
2020/12/04 09:04:03;;;;;;;20.00;8.60;;;5.80;99.90;;;;;;4238211;27;20774;-49
2020/12/04 09:06:04;;;;;;;14.33;7.63;;;5.80;99.90;;;;;;4250584;27;20027;-47
2020/12/04 09:08:06;;;;;;;18.37;8.77;;;5.80;99.90;;;;;;4258651;27;20084;-46
2020/12/04 09:10:10;;;;;;;18.63;8.53;;;5.90;99.90;;;;;;4258845;27;20748;-47
2020/12/04 09:12:11;;;;;;;15.40;7.73;;;6.00;99.90;;;;;;4246456;27;20040;-44
2020/12/04 09:14:12;;;;;;;13.57;7.17;;;6.10;99.90;;;;;;4241603;27;20043;-47
2020/12/04 09:16:14;;;;;;;18.10;8.77;;;6.20;99.90;;;;;;4239763;27;20100;-44
2020/12/04 09:18:16;;;;;;;12.83;7.03;;;6.30;99.90;;;;;;4240665;27;20031;-43
2020/12/04 09:20:17;;;;;;;17.47;8.37;;;6.30;99.90;;;;;;4241489;27;20287;-45
2020/12/04 09:22:18;;;;;;;15.47;7.57;;;6.50;99.90;;;;;;4240331;27;20084;-42
2020/12/04 09:24:19;;;;;;;20.20;9.17;;;6.50;99.90;;;;;;4242065;27;20107;-46
2020/12/04 09:26:21;;;;;;;19.67;8.67;;;6.50;99.90;;;;;;4240727;27;20039;-45
2020/12/04 09:28:22;;;;;;;18.70;9.63;;;6.50;99.90;;;;;;4242229;27;20031;-41
2020/12/04 09:30:23;;;;;;;12.83;6.90;;;6.60;99.90;;;;;;4241610;27;20038;-46
2020/12/04 09:32:24;;;;;;;21.40;8.30;;;6.80;99.90;;;;;;4241795;27;20234;-46
2020/12/04 09:34:25;;;;;;;24.93;8.87;;;6.60;99.90;;;;;;4240017;27;20095;-46
2020/12/04 09:36:26;;;;;;;17.77;9.93;;;6.60;99.90;;;;;;4241753;27;20042;-40
2020/12/04 09:38:27;;;;;;;19.17;9.30;;;6.50;99.90;;;;;;4240557;27;20474;-47
2020/12/04 09:40:29;;;;;;;22.63;9.20;;;6.50;99.90;;;;;;4241703;27;20027;-46
2020/12/04 09:42:30;;;;;;;17.87;7.97;;;6.60;99.90;;;;;;4240346;27;20076;-43
2020/12/04 09:44:31;;;;;;;18.80;8.70;;;6.90;99.90;;;;;;4222709;28;20047;-45
2020/12/04 09:46:32;;;;;;;18.43;8.27;;;6.90;99.90;;;;;;4240860;27;20035;-40
2020/12/04 09:48:34;;;;;;;16.73;8.17;;;6.90;99.90;;;;;;4240634;27;20056;-50
2020/12/04 09:50:36;;;;;;;14.20;7.50;;;6.90;99.90;;;;;;4242010;27;20035;-45
2020/12/04 09:52:39;;;;;;;20.87;8.67;;;7.30;99.90;;;;;;4239735;27;20099;-47
2020/12/04 09:54:41;;;;;;;19.00;8.67;;;7.40;99.90;;;;;;4242059;27;20031;-42
2020/12/04 09:56:42;;;;;;;17.83;7.77;;;7.50;99.90;;;;;;4240069;27;20051;-43
2020/12/04 09:58:43;;;;;;;17.13;8.40;;;7.50;99.90;;;;;;4241684;27;20476;-45
2020/12/04 10:00:44;;;;;;;16.33;8.63;;;7.60;99.90;;;;;;4239799;27;20055;-43
2020/12/04 10:02:45;;;;;;;9.90;5.70;;;7.60;99.90;;;;;;4241247;27;20047;-45
2020/12/04 10:04:46;;;;;;;10.63;5.87;;;7.90;99.90;;;;;;4239590;27;20047;-47
2020/12/04 10:06:49;;;;;;;12.97;5.70;;;8.20;99.90;;;;;;4222935;28;20451;-48
2020/12/04 10:08:50;;;;;;;17.40;7.50;;;8.40;99.90;;;;;;4239663;27;20100;-44
2020/12/04 10:10:52;;;;;;;9.23;5.67;;;8.30;99.90;;;;;;4240912;27;20059;-41
2020/12/04 10:12:53;;;;;;;18.27;8.80;;;8.30;99.90;;;;;;4239933;27;20448;-43
2020/12/04 10:14:54;;;;;;;21.17;9.63;;;8.10;99.90;;;;;;4240950;27;20070;-37
2020/12/04 10:16:55;;;;;;;12.77;6.10;;;7.80;99.90;;;;;;4240829;27;20027;-39
2020/12/04 10:18:57;;;;;;;10.80;5.47;;;7.80;99.90;;;;;;4240559;27;20091;-38
2020/12/04 10:20:59;;;;;;;11.70;5.70;;;8.10;99.90;;;;;;4239351;27;20562;-42
2020/12/04 10:23:00;;;;;;;9.03;5.80;;;8.30;99.90;;;;;;4239281;27;20840;-47
2020/12/04 10:25:01;;;;;;;9.63;5.17;;;8.50;99.90;;;;;;4240451;27;20104;-44
2020/12/04 10:27:02;;;;;;;12.30;6.67;;;8.70;99.90;;;;;;4239462;27;20586;-44
2020/12/04 10:29:04;;;;;;;10.53;5.90;;;8.80;99.90;;;;;;4239131;27;20031;-50
2020/12/04 10:31:05;;;;;;;9.37;4.60;;;8.90;99.90;;;;;;4240492;27;20023;-44
2020/12/04 10:33:06;;;;;;;8.30;5.33;;;8.90;99.50;;;;;;4239818;27;20042;-43
2020/12/04 10:35:07;;;;;;;11.30;6.20;;;9.00;99.00;;;;;;4239068;27;20039;-48